高雄終端管制區 - 高雄雷達席

METAR RCKH 161430Z 03004KT 340V080 7000 FEW016 SCT048 22/19 Q1019 NOSIG RMK A3009(A)=

站台狀態:Online
最後更新:2018-12-16 22:30:01